Flight Track Log - Related Links

Times and Time Zones

All times are in EDT time to prevent confusion due to time zone crossing. See the EJA922 flight status page for this flight to view local times or setup timezone preferences in your user account.

Time Position Orientation Groundspeed Altitude Reporting Facility
EDT Latitude Longitude Course Direction KTS MPH feet Rate Location/Type
Thu 07:32:06 AM 37.6383 -97.4281 184° South 193 222 2,100  Level Kansas City Center
Thu 07:33:14 AM 37.5767 -97.4339 184° South 231 266 4,600 2,465 Climbing Kansas City Center
Thu 07:34:15 AM 37.5514 -97.3506 111° Southeast 253 291 7,400 2,508 Climbing Kansas City Center
Thu 07:35:16 AM 37.5200 -97.2583 113° Southeast 281 323 9,700 1,918 Climbing Kansas City Center
Thu 07:36:17 AM 37.4756 -97.1250 113° Southeast 345 397 11,300 1,900 Climbing Kansas City Center
Thu 07:37:16 AM 37.4347 -97.0003 112° Southeast 379 436 13,500 2,066 Climbing Kansas City Center
Thu 07:38:19 AM 37.3869 -96.8714 115° Southeast 403 464 15,500 1,967 Climbing Kansas City Center
Thu 07:39:18 AM 37.3256 -96.7506 123° Southeast 412 474 17,500 1,721 Climbing Kansas City Center
Thu 07:40:21 AM 37.2633 -96.6272 122° Southeast 417 480 19,000 1,355 Climbing Kansas City Center
Thu 07:41:22 AM 37.1992 -96.4997 122° Southeast 429 494 20,300 1,438 Climbing Kansas City Center
Thu 07:42:22 AM 37.1294 -96.3672 123° Southeast 438 504 21,900 1,279 Climbing Kansas City Center
Thu 07:43:24 AM 37.0614 -96.2356 123° Southeast 446 513 22,900 1,041 Climbing Kansas City Center
Thu 07:44:23 AM 36.9939 -96.0992 122° Southeast 459 528 24,000 1,050 Climbing Kansas City Center
Thu 07:45:24 AM 36.9208 -95.9611 123° Southeast 472 543 25,000 984 Climbing Kansas City Center
Thu 07:46:25 AM 36.8478 -95.8197 123° Southeast 480 552 26,000 927 Climbing Kansas City Center
Thu 07:47:27 AM 36.7719 -95.6756 123° Southeast 488 562 26,900 927 Climbing Kansas City Center
Thu 07:48:28 AM 36.6939 -95.5272 123° Southeast 501 577 27,900 984 Climbing Kansas City Center
Thu 07:49:29 AM 36.6169 -95.3742 122° Southeast 509 586 28,900 927 Climbing Kansas City Center
Thu 07:50:31 AM 36.5400 -95.2153 121° Southeast 517 595 29,800 843 Climbing Kansas City Center
Thu 07:51:30 AM 36.4786 -95.0469 114° Southeast 524 603 30,600 1,033 Climbing Kansas City Center
Thu 07:52:33 AM 36.4317 -94.8731 109° East 526 605 31,900 1,392 Climbing Kansas City Center
Thu 07:53:35 AM 36.3850 -94.7011 109° East 524 603 33,500 1,574 Climbing Kansas City Center
Thu 07:54:35 AM 36.3392 -94.5314 108° East 519 597 35,100 1,488 Climbing Kansas City Center
Thu 07:55:36 AM 36.2925 -94.3600 109° East 520 598 36,500 1,561 Climbing Kansas City Center
Thu 07:56:38 AM 36.2467 -94.1889 108° East 523 602 38,300 1,935 Climbing Kansas City Center
Thu 07:57:09 AM 36.2178 -94.0844 109° East 516 594 39,500 1,780 Climbing Memphis Center
Thu 07:58:09 AM 36.1689 -93.8972 108° East 516 594 41,000 750 Climbing Memphis Center
Thu 07:59:09 AM 36.1194 -93.7231 109° East 516 594 41,000  Level Memphis Center
Thu 08:00:09 AM 36.0719 -93.5514 109° East 526 605 41,000  Level Memphis Center
Thu 08:01:09 AM 36.0261 -93.3778 108° East 531 611 41,000  Level Memphis Center
Thu 08:02:09 AM 35.9761 -93.1989 109° East 536 617 41,000  Level Memphis Center
Thu 08:03:09 AM 35.9258 -93.0281 110° East 536 617 41,000  Level Memphis Center
Thu 08:04:09 AM 35.8772 -92.8547 109° East 531 611 41,000  Level Memphis Center
Thu 08:05:09 AM 35.8306 -92.6844 109° East 531 611 41,000  Level Memphis Center
Thu 08:06:09 AM 35.7814 -92.5142 110° East 531 611 41,000  Level Memphis Center
Thu 08:07:09 AM 35.7358 -92.3647 111° Southeast 531 611 41,000  Level Memphis Center
Thu 08:08:09 AM 35.6864 -92.1947 110° East 525 604 41,000  Level Memphis Center
Thu 08:09:09 AM 35.6386 -92.0278 109° East 525 604 41,000  Level Memphis Center
Thu 08:10:09 AM 35.5886 -91.8581 110° East 525 604 41,000  Level Memphis Center
Thu 08:11:09 AM 35.5383 -91.6939 111° Southeast 530 610 41,000  Level Memphis Center
Thu 08:12:09 AM 35.4881 -91.5275 110° East 525 604 41,000  Level Memphis Center
Thu 08:13:09 AM 35.4333 -91.3406 110° East 525 604 41,000  Level Memphis Center
Thu 08:14:09 AM 35.3883 -91.1897 110° East 525 604 41,000  Level Memphis Center
Thu 08:15:09 AM 35.3292 -91.0036 111° Southeast 531 611 41,000  Level Memphis Center
Thu 08:16:09 AM 35.2858 -90.8531 109° East 531 611 41,000  Level Memphis Center
Thu 08:17:09 AM 35.2344 -90.6850 110° East 531 611 41,000  Level Memphis Center
Thu 08:18:09 AM 35.1825 -90.5119 110° East 531 611 41,000  Level Memphis Center
Thu 08:19:09 AM 35.1306 -90.3469 111° Southeast 531 611 41,000  Level Memphis Center
Thu 08:20:09 AM 35.0781 -90.1819 111° Southeast 531 611 41,000  Level Memphis Center
Thu 08:21:09 AM 35.0278 -90.0122 110° East 531 611 41,000  Level Memphis Center
Thu 08:22:09 AM 35.0019 -89.8222 99° East 525 604 41,000  Level Memphis Center
Thu 08:23:09 AM 34.9594 -89.6400 106° East 530 610 41,000  Level Memphis Center
Thu 08:24:09 AM 34.9414 -89.4653 97° East 533 613 41,000  Level Memphis Center
Thu 08:25:09 AM 34.9153 -89.3111 102° East 522 601 41,000  Level Memphis Center
Thu 08:26:09 AM 34.8908 -89.1367 100° East 516 594 41,000  Level Memphis Center
Thu 08:27:09 AM 34.8639 -88.9675 101° East 516 594 41,000  Level Memphis Center
Thu 08:28:09 AM 34.8369 -88.7961 101° East 516 594 41,000  Level Memphis Center
Thu 08:29:09 AM 34.8094 -88.6219 101° East 521 600 41,000  Level Memphis Center
Thu 08:30:09 AM 34.7817 -88.4406 101° East 512 589 41,000  Level Memphis Center
Thu 08:31:09 AM 34.7561 -88.2742 101° East 507 583 41,000  Level Memphis Center
Thu 08:32:09 AM 34.7258 -88.0931 101° East 520 598 41,000  Level Memphis Center
Thu 08:33:09 AM 34.6997 -87.9219 100° East 527 606 41,000  Level Memphis Center
Thu 08:35:06 AM 34.6503 -87.6092 101° East 530 610 41,000  Level Atlanta Center
Thu 08:36:06 AM 34.6239 -87.4339 100° East 525 604 41,000  Level Atlanta Center
Thu 08:37:06 AM 34.5889 -87.2633 104° East 525 604 41,000  Level Atlanta Center
Thu 08:38:06 AM 34.5558 -87.0906 103° East 525 604 41,000  Level Atlanta Center
Thu 08:39:06 AM 34.5222 -86.9256 104° East 520 598 41,000  Level Atlanta Center
Thu 08:40:06 AM 34.4906 -86.7531 103° East 520 598 41,000  Level Atlanta Center
Thu 08:41:06 AM 34.4567 -86.5833 104° East 514 592 41,000  Level Atlanta Center
Thu 08:42:06 AM 34.4311 -86.4086 100° East 514 592 41,000  Level Atlanta Center
Thu 08:43:06 AM 34.4069 -86.2392 100° East 514 592 41,000  Level Atlanta Center
Thu 08:44:06 AM 34.3808 -86.0700 101° East 509 586 41,000  Level Atlanta Center
Thu 08:45:06 AM 34.3583 -85.9008 99° East 509 586 41,000  Level Atlanta Center
Thu 08:46:06 AM 34.3317 -85.7167 100° East 501 577 41,000  Level Atlanta Center
Thu 08:47:06 AM 34.3069 -85.5475 100° East 509 586 41,000 -350 Level Atlanta Center
Thu 08:48:06 AM 34.2794 -85.3786 101° East 509 586 40,300 -950 Descending Atlanta Center
Thu 08:49:06 AM 34.2542 -85.2050 100° East 509 586 39,100 -1,050 Descending Atlanta Center
Thu 08:50:06 AM 34.2306 -85.0514 100° East 509 586 38,200 -1,050 Descending Atlanta Center
Thu 08:51:06 AM 34.2047 -84.8828 100° East 509 586 37,000 -1,250 Descending Atlanta Center
Thu 08:52:06 AM 34.1786 -84.7117 100° East 509 586 35,700 -1,000 Descending Atlanta Center
Thu 08:53:06 AM 34.1522 -84.5383 100° East 514 592 35,000 -350 Descending Atlanta Center
Thu 08:54:06 AM 34.1153 -84.3475 103° East 522 601 35,000  Level Atlanta Center
Thu 08:55:06 AM 34.0906 -84.1692 99° East 530 610 35,000  Level Atlanta Center
Thu 08:56:06 AM 34.0614 -83.9961 101° East 537 618 35,000 -150 Level Atlanta Center
Thu 08:57:06 AM 34.0319 -83.8233 102° East 526 605 34,700 -1,000 Descending Atlanta Center
Thu 08:58:06 AM 34.0022 -83.6506 102° East 526 605 33,000 -1,500 Descending Atlanta Center
Thu 08:59:06 AM 33.9725 -83.4778 102° East 526 605 31,700 -1,250 Descending Atlanta Center
Thu 09:00:06 AM 33.9425 -83.3303 104° East 514 592 30,500 -1,300 Descending Atlanta Center
Thu 09:01:06 AM 33.8853 -83.1781 114° Southeast 501 577 29,100 -1,450 Descending Atlanta Center
Thu 09:02:06 AM 33.8278 -83.0336 116° Southeast 483 556 27,600 -2,550 Descending Atlanta Center
Thu 09:03:06 AM 33.8056 -82.8814 100° East 465 535 24,000 -3,400 Descending Atlanta Center
Thu 09:04:06 AM 33.7872 -82.7342 98° East 453 521 20,800 -3,200 Descending Atlanta Center
Thu 09:05:06 AM 33.7606 -82.5769 101° East 464 534 17,600 -3,150 Descending Atlanta Center
Thu 09:06:06 AM 33.7067 -82.4381 115° Southeast 442 509 14,500 -2,750 Descending Atlanta Center
Thu 09:07:06 AM 33.6406 -82.3494 132° Southeast 393 452 12,100 -2,600 Descending Atlanta Center
Thu 09:08:06 AM 33.5939 -82.2781 128° Southeast 345 397 9,300 -3,100 Descending Atlanta Center
Thu 09:09:06 AM 33.5758 -82.1911 104° East 283 326 5,900 -3,100 Descending Atlanta Center
Thu 09:10:06 AM 33.5783 -82.0939 88° East 269 310 3,100 -1,450 Descending Atlanta Center
Thu 09:11:06 AM 33.5503 -82.0247 116° Southeast 243 280 3,000 -500 Descending Atlanta Center
Thu 09:12:06 AM 33.4956 -82.0011 160° South 190 219 2,100 -650 Descending Atlanta Center
Thu 09:13:06 AM 33.4389 -81.9875 169° South 195 224 1,700 -800 Descending Atlanta Center
Thu 09:14:06 AM 33.3969 -81.9761 167° South 184 212 500 -1,200 Descending Atlanta Center
Thu 09:16:00 AM 33.3699 -81.9645 148° Southeast  Level Estimated
Thu 09:23:00 AM 33.3699 -81.9645 148° Southeast  Level Estimated

Login

Don't have an account? Register now (free) for customized features, flight alerts, and more!